sensor_id;sensor_type;location;lat;lon;timestamp;temperature;humidity
47540;DHT22;33280;52.152;21.052;2022-12-18T00:01:15;-4.60;99.90
47540;DHT22;33280;52.152;21.052;2022-12-18T00:03:43;-4.50;99.90
47540;DHT22;33280;52.152;21.052;2022-12-18T00:06:11;-4.60;99.90
47540;DHT22;33280;52.152;21.052;2022-12-18T00:08:38;-4.60;99.90
47540;DHT22;33280;52.152;21.052;2022-12-18T00:11:14;-4.40;99.90
47540;DHT22;33280;52.152;21.052;2022-12-18T00:13:45;-4.50;99.90
47540;DHT22;33280;52.152;21.052;2022-12-18T00:16:17;-4.70;99.90
47540;DHT22;33280;52.152;21.052;2022-12-18T00:18:52;-4.70;99.90
47540;DHT22;33280;52.152;21.052;2022-12-18T00:21:20;-4.70;99.90
47540;DHT22;33280;52.152;21.052;2022-12-18T00:23:48;-4.70;99.90
47540;DHT22;33280;52.152;21.052;2022-12-18T00:26:23;-4.50;99.90
47540;DHT22;33280;52.152;21.052;2022-12-18T00:28:52;-4.40;99.90
47540;DHT22;33280;52.152;21.052;2022-12-18T00:31:23;-4.50;99.90
47540;DHT22;33280;52.152;21.052;2022-12-18T00:33:54;-4.40;99.90
47540;DHT22;33280;52.152;21.052;2022-12-18T00:36:27;-4.40;99.90
47540;DHT22;33280;52.152;21.052;2022-12-18T00:38:56;-4.40;99.90
47540;DHT22;33280;52.152;21.052;2022-12-18T00:41:23;-4.30;99.90
47540;DHT22;33280;52.152;21.052;2022-12-18T00:44:11;-4.20;99.90
47540;DHT22;33280;52.152;21.052;2022-12-18T00:46:42;-4.10;99.90
47540;DHT22;33280;52.152;21.052;2022-12-18T00:49:10;-4.10;99.90
47540;DHT22;33280;52.152;21.052;2022-12-18T00:51:40;-4.20;99.90
47540;DHT22;33280;52.152;21.052;2022-12-18T00:54:07;-4.10;99.90
47540;DHT22;33280;52.152;21.052;2022-12-18T00:56:38;-4.20;99.90
47540;DHT22;33280;52.152;21.052;2022-12-18T00:59:19;-4.20;99.90
47540;DHT22;33280;52.152;21.052;2022-12-18T01:01:46;-4.20;99.90
47540;DHT22;33280;52.152;21.052;2022-12-18T01:04:14;-4.20;99.90
47540;DHT22;33280;52.152;21.052;2022-12-18T01:06:40;-4.30;99.90
47540;DHT22;33280;52.152;21.052;2022-12-18T01:09:07;-4.30;99.90
47540;DHT22;33280;52.152;21.052;2022-12-18T01:11:34;-4.20;99.90
47540;DHT22;33280;52.152;21.052;2022-12-18T01:14:01;-4.20;99.90
47540;DHT22;33280;52.152;21.052;2022-12-18T01:16:28;-4.30;99.90
47540;DHT22;33280;52.152;21.052;2022-12-18T01:18:55;-4.30;99.90
47540;DHT22;33280;52.152;21.052;2022-12-18T01:21:23;-4.10;99.90
47540;DHT22;33280;52.152;21.052;2022-12-18T01:23:52;-4.10;99.90
47540;DHT22;33280;52.152;21.052;2022-12-18T01:26:20;-4.10;99.90
47540;DHT22;33280;52.152;21.052;2022-12-18T01:28:47;-4.20;99.90
47540;DHT22;33280;52.152;21.052;2022-12-18T01:31:29;-4.20;99.90
47540;DHT22;33280;52.152;21.052;2022-12-18T01:33:57;-4.10;99.90
47540;DHT22;33280;52.152;21.052;2022-12-18T01:36:31;-4.10;99.90
47540;DHT22;33280;52.152;21.052;2022-12-18T01:39:01;-4.00;99.90
47540;DHT22;33280;52.152;21.052;2022-12-18T01:41:29;-4.10;99.90
47540;DHT22;33280;52.152;21.052;2022-12-18T01:47:38;-4.00;99.90
47540;DHT22;33280;52.152;21.052;2022-12-18T01:50:19;-3.90;99.90
47540;DHT22;33280;52.152;21.052;2022-12-18T01:52:50;-3.80;99.90
47540;DHT22;33280;52.152;21.052;2022-12-18T01:55:20;-4.00;99.90
47540;DHT22;33280;52.152;21.052;2022-12-18T01:57:51;-4.00;99.90
47540;DHT22;33280;52.152;21.052;2022-12-18T02:00:20;-3.90;99.90
47540;DHT22;33280;52.152;21.052;2022-12-18T02:02:48;-3.90;99.90
47540;DHT22;33280;52.152;21.052;2022-12-18T02:05:23;-3.90;99.90
47540;DHT22;33280;52.152;21.052;2022-12-18T02:10:45;-3.70;99.90
47540;DHT22;33280;52.152;21.052;2022-12-18T02:18:56;-3.60;99.90
47540;DHT22;33280;52.152;21.052;2022-12-18T02:24:27;-3.70;99.90
47540;DHT22;33280;52.152;21.052;2022-12-18T02:27:02;-3.70;99.90
47540;DHT22;33280;52.152;21.052;2022-12-18T02:32:08;-3.70;99.90
47540;DHT22;33280;52.152;21.052;2022-12-18T02:34:38;-3.70;99.90
47540;DHT22;33280;52.152;21.052;2022-12-18T02:37:09;-3.60;99.90
47540;DHT22;33280;52.152;21.052;2022-12-18T02:39:40;-3.70;99.90
47540;DHT22;33280;52.152;21.052;2022-12-18T02:42:08;-3.70;99.90
47540;DHT22;33280;52.152;21.052;2022-12-18T02:44:42;-3.70;99.90
47540;DHT22;33280;52.152;21.052;2022-12-18T02:47:12;-3.70;99.90
47540;DHT22;33280;52.152;21.052;2022-12-18T02:49:46;-3.70;99.90
47540;DHT22;33280;52.152;21.052;2022-12-18T02:55:26;-3.60;99.90
47540;DHT22;33280;52.152;21.052;2022-12-18T03:03:04;-3.60;99.90
47540;DHT22;33280;52.152;21.052;2022-12-18T03:05:40;-3.60;99.90
47540;DHT22;33280;52.152;21.052;2022-12-18T03:08:34;-3.80;99.90
47540;DHT22;33280;52.152;21.052;2022-12-18T03:11:04;-3.70;99.90
47540;DHT22;33280;52.152;21.052;2022-12-18T03:13:47;-3.60;99.90
47540;DHT22;33280;52.152;21.052;2022-12-18T03:16:20;-3.50;99.90
47540;DHT22;33280;52.152;21.052;2022-12-18T03:18:56;-3.60;99.90
47540;DHT22;33280;52.152;21.052;2022-12-18T03:21:30;-3.70;99.90
47540;DHT22;33280;52.152;21.052;2022-12-18T03:23:59;-3.80;99.90
47540;DHT22;33280;52.152;21.052;2022-12-18T03:26:28;-3.80;99.90
47540;DHT22;33280;52.152;21.052;2022-12-18T03:29:00;-3.70;99.90
47540;DHT22;33280;52.152;21.052;2022-12-18T03:31:29;-3.80;99.90
47540;DHT22;33280;52.152;21.052;2022-12-18T03:34:04;-3.80;99.90
47540;DHT22;33280;52.152;21.052;2022-12-18T03:36:33;-3.90;99.90
47540;DHT22;33280;52.152;21.052;2022-12-18T03:39:00;-4.00;99.90
47540;DHT22;33280;52.152;21.052;2022-12-18T03:44:29;-4.00;99.90
47540;DHT22;33280;52.152;21.052;2022-12-18T03:47:16;-4.20;99.90
47540;DHT22;33280;52.152;21.052;2022-12-18T03:52:32;-4.10;99.90
47540;DHT22;33280;52.152;21.052;2022-12-18T03:55:02;-4.00;99.90
47540;DHT22;33280;52.152;21.052;2022-12-18T03:57:31;-4.00;99.90
47540;DHT22;33280;52.152;21.052;2022-12-18T04:00:22;-4.00;99.90
47540;DHT22;33280;52.152;21.052;2022-12-18T04:02:51;-4.10;99.90
47540;DHT22;33280;52.152;21.052;2022-12-18T04:05:20;-4.00;99.90
47540;DHT22;33280;52.152;21.052;2022-12-18T04:07:49;-3.90;99.90
47540;DHT22;33280;52.152;21.052;2022-12-18T04:10:18;-3.90;99.90
47540;DHT22;33280;52.152;21.052;2022-12-18T04:12:45;-3.90;99.90
47540;DHT22;33280;52.152;21.052;2022-12-18T04:15:12;-3.90;99.90
47540;DHT22;33280;52.152;21.052;2022-12-18T04:17:47;-4.00;99.90
47540;DHT22;33280;52.152;21.052;2022-12-18T04:20:15;-3.90;99.90
47540;DHT22;33280;52.152;21.052;2022-12-18T04:22:42;-4.00;99.90
47540;DHT22;33280;52.152;21.052;2022-12-18T04:25:09;-4.20;99.90
47540;DHT22;33280;52.152;21.052;2022-12-18T04:27:39;-4.30;99.90
47540;DHT22;33280;52.152;21.052;2022-12-18T04:30:06;-4.10;99.90
47540;DHT22;33280;52.152;21.052;2022-12-18T04:32:34;-4.20;99.90
47540;DHT22;33280;52.152;21.052;2022-12-18T04:35:00;-4.20;99.90
47540;DHT22;33280;52.152;21.052;2022-12-18T04:37:27;-4.40;99.90
47540;DHT22;33280;52.152;21.052;2022-12-18T04:39:54;-4.40;99.90
47540;DHT22;33280;52.152;21.052;2022-12-18T04:42:21;-4.30;99.90
47540;DHT22;33280;52.152;21.052;2022-12-18T04:44:48;-4.40;99.90
47540;DHT22;33280;52.152;21.052;2022-12-18T04:47:14;-4.50;99.90
47540;DHT22;33280;52.152;21.052;2022-12-18T04:49:41;-4.50;99.90
47540;DHT22;33280;52.152;21.052;2022-12-18T04:52:08;-4.40;99.90
47540;DHT22;33280;52.152;21.052;2022-12-18T04:54:35;-4.50;99.90
47540;DHT22;33280;52.152;21.052;2022-12-18T04:57:02;-4.50;99.90
47540;DHT22;33280;52.152;21.052;2022-12-18T04:59:29;-4.60;99.90
47540;DHT22;33280;52.152;21.052;2022-12-18T05:01:56;-4.60;99.90
47540;DHT22;33280;52.152;21.052;2022-12-18T05:04:23;-4.70;99.90
47540;DHT22;33280;52.152;21.052;2022-12-18T05:06:50;-4.70;99.90
47540;DHT22;33280;52.152;21.052;2022-12-18T05:09:16;-4.60;99.90
47540;DHT22;33280;52.152;21.052;2022-12-18T05:11:45;-4.60;99.90
47540;DHT22;33280;52.152;21.052;2022-12-18T05:14:13;-4.80;99.90
47540;DHT22;33280;52.152;21.052;2022-12-18T05:16:40;-4.80;99.90
47540;DHT22;33280;52.152;21.052;2022-12-18T05:19:07;-4.80;99.90
47540;DHT22;33280;52.152;21.052;2022-12-18T05:21:33;-4.80;99.90
47540;DHT22;33280;52.152;21.052;2022-12-18T05:24:00;-4.70;99.90
47540;DHT22;33280;52.152;21.052;2022-12-18T05:26:27;-4.80;99.90
47540;DHT22;33280;52.152;21.052;2022-12-18T05:28:55;-4.90;99.90
47540;DHT22;33280;52.152;21.052;2022-12-18T05:31:22;-4.80;99.90
47540;DHT22;33280;52.152;21.052;2022-12-18T05:33:49;-4.80;99.90
47540;DHT22;33280;52.152;21.052;2022-12-18T05:36:16;-4.90;99.90
47540;DHT22;33280;52.152;21.052;2022-12-18T05:38:43;-4.90;99.90
47540;DHT22;33280;52.152;21.052;2022-12-18T05:41:10;-5.00;99.90
47540;DHT22;33280;52.152;21.052;2022-12-18T05:43:38;-5.00;99.90
47540;DHT22;33280;52.152;21.052;2022-12-18T05:46:08;-4.90;99.90
47540;DHT22;33280;52.152;21.052;2022-12-18T05:48:35;-4.80;99.90
47540;DHT22;33280;52.152;21.052;2022-12-18T05:51:07;-4.80;99.90
47540;DHT22;33280;52.152;21.052;2022-12-18T05:53:35;-4.70;99.90
47540;DHT22;33280;52.152;21.052;2022-12-18T05:56:05;-4.70;99.90
47540;DHT22;33280;52.152;21.052;2022-12-18T05:58:33;-4.60;99.90
47540;DHT22;33280;52.152;21.052;2022-12-18T06:01:18;-4.50;99.90
47540;DHT22;33280;52.152;21.052;2022-12-18T06:03:45;-4.60;99.90
47540;DHT22;33280;52.152;21.052;2022-12-18T06:06:18;-4.50;99.90
47540;DHT22;33280;52.152;21.052;2022-12-18T06:08:46;-4.70;99.90
47540;DHT22;33280;52.152;21.052;2022-12-18T06:11:18;-4.60;99.90
47540;DHT22;33280;52.152;21.052;2022-12-18T06:13:46;-4.70;99.90
47540;DHT22;33280;52.152;21.052;2022-12-18T06:16:13;-4.70;99.90
47540;DHT22;33280;52.152;21.052;2022-12-18T06:18:40;-4.70;99.90
47540;DHT22;33280;52.152;21.052;2022-12-18T06:21:07;-4.70;99.90
47540;DHT22;33280;52.152;21.052;2022-12-18T06:23:34;-4.80;99.90
47540;DHT22;33280;52.152;21.052;2022-12-18T06:26:10;-4.70;99.90
47540;DHT22;33280;52.152;21.052;2022-12-18T06:28:37;-4.70;99.90
47540;DHT22;33280;52.152;21.052;2022-12-18T06:31:05;-4.70;99.90
47540;DHT22;33280;52.152;21.052;2022-12-18T06:33:33;-4.70;99.90
47540;DHT22;33280;52.152;21.052;2022-12-18T06:36:01;-4.60;99.90
47540;DHT22;33280;52.152;21.052;2022-12-18T06:38:28;-4.60;99.90
47540;DHT22;33280;52.152;21.052;2022-12-18T06:40:55;-4.70;99.90
47540;DHT22;33280;52.152;21.052;2022-12-18T06:43:22;-4.60;99.90
47540;DHT22;33280;52.152;21.052;2022-12-18T06:45:49;-4.50;99.90
47540;DHT22;33280;52.152;21.052;2022-12-18T06:48:19;-4.70;99.90
47540;DHT22;33280;52.152;21.052;2022-12-18T06:50:47;-4.60;99.90
47540;DHT22;33280;52.152;21.052;2022-12-18T06:53:14;-4.70;99.90
47540;DHT22;33280;52.152;21.052;2022-12-18T06:55:41;-4.70;99.90
47540;DHT22;33280;52.152;21.052;2022-12-18T06:58:08;-4.80;99.90
47540;DHT22;33280;52.152;21.052;2022-12-18T07:00:36;-4.80;99.90
47540;DHT22;33280;52.152;21.052;2022-12-18T07:03:03;-4.90;99.90
47540;DHT22;33280;52.152;21.052;2022-12-18T07:05:30;-5.00;99.90
47540;DHT22;33280;52.152;21.052;2022-12-18T07:07:58;-5.00;99.90
47540;DHT22;33280;52.152;21.052;2022-12-18T07:10:25;-4.80;99.90
47540;DHT22;33280;52.152;21.052;2022-12-18T07:12:52;-4.70;99.90
47540;DHT22;33280;52.152;21.052;2022-12-18T07:15:19;-4.60;99.90
47540;DHT22;33280;52.152;21.052;2022-12-18T07:17:45;-4.50;99.90
47540;DHT22;33280;52.152;21.052;2022-12-18T07:20:12;-4.40;99.90
47540;DHT22;33280;52.152;21.052;2022-12-18T07:22:41;-4.50;99.90
47540;DHT22;33280;52.152;21.052;2022-12-18T07:25:08;-4.40;99.90
47540;DHT22;33280;52.152;21.052;2022-12-18T07:27:35;-4.30;99.90
47540;DHT22;33280;52.152;21.052;2022-12-18T07:30:02;-4.20;99.90
47540;DHT22;33280;52.152;21.052;2022-12-18T07:32:30;-4.40;99.90
47540;DHT22;33280;52.152;21.052;2022-12-18T07:34:58;-4.20;99.90
47540;DHT22;33280;52.152;21.052;2022-12-18T07:37:25;-4.10;99.90
47540;DHT22;33280;52.152;21.052;2022-12-18T07:39:53;-4.10;99.90
47540;DHT22;33280;52.152;21.052;2022-12-18T07:42:20;-4.10;99.90
47540;DHT22;33280;52.152;21.052;2022-12-18T07:45:03;-4.30;99.90
47540;DHT22;33280;52.152;21.052;2022-12-18T07:47:30;-4.20;99.90
47540;DHT22;33280;52.152;21.052;2022-12-18T07:50:00;-4.40;99.90
47540;DHT22;33280;52.152;21.052;2022-12-18T07:52:26;-4.60;99.90
47540;DHT22;33280;52.152;21.052;2022-12-18T07:54:53;-4.50;99.90
47540;DHT22;33280;52.152;21.052;2022-12-18T07:57:20;-4.30;99.90
47540;DHT22;33280;52.152;21.052;2022-12-18T08:00:08;-4.10;99.90
47540;DHT22;33280;52.152;21.052;2022-12-18T08:02:35;-3.90;99.90
47540;DHT22;33280;52.152;21.052;2022-12-18T08:05:02;-3.80;99.90
47540;DHT22;33280;52.152;21.052;2022-12-18T08:07:29;-3.80;99.90
47540;DHT22;33280;52.152;21.052;2022-12-18T08:09:57;-4.00;99.90
47540;DHT22;33280;52.152;21.052;2022-12-18T08:12:24;-4.10;99.90
47540;DHT22;33280;52.152;21.052;2022-12-18T08:14:51;-3.90;99.90
47540;DHT22;33280;52.152;21.052;2022-12-18T08:17:19;-3.80;99.90
47540;DHT22;33280;52.152;21.052;2022-12-18T08:19:47;-3.70;99.90
47540;DHT22;33280;52.152;21.052;2022-12-18T08:22:14;-3.70;99.90
47540;DHT22;33280;52.152;21.052;2022-12-18T08:24:41;-3.80;99.90
47540;DHT22;33280;52.152;21.052;2022-12-18T08:27:08;-3.70;99.90
47540;DHT22;33280;52.152;21.052;2022-12-18T08:29:55;-3.70;99.90
47540;DHT22;33280;52.152;21.052;2022-12-18T08:32:22;-3.60;99.90
47540;DHT22;33280;52.152;21.052;2022-12-18T08:34:49;-3.40;99.90
47540;DHT22;33280;52.152;21.052;2022-12-18T08:37:16;-3.40;99.90
47540;DHT22;33280;52.152;21.052;2022-12-18T08:39:43;-3.40;99.90
47540;DHT22;33280;52.152;21.052;2022-12-18T08:42:10;-3.50;99.90
47540;DHT22;33280;52.152;21.052;2022-12-18T08:44:56;-3.50;99.90
47540;DHT22;33280;52.152;21.052;2022-12-18T08:47:24;-3.60;99.90
47540;DHT22;33280;52.152;21.052;2022-12-18T08:49:52;-3.60;99.90
47540;DHT22;33280;52.152;21.052;2022-12-18T08:52:19;-3.60;99.90
47540;DHT22;33280;52.152;21.052;2022-12-18T08:54:46;-3.70;99.90
47540;DHT22;33280;52.152;21.052;2022-12-18T08:57:13;-3.90;99.90
47540;DHT22;33280;52.152;21.052;2022-12-18T08:59:40;-3.90;99.90
47540;DHT22;33280;52.152;21.052;2022-12-18T09:02:10;-3.80;99.90
47540;DHT22;33280;52.152;21.052;2022-12-18T09:04:37;-3.70;99.90
47540;DHT22;33280;52.152;21.052;2022-12-18T09:07:04;-3.50;99.90
47540;DHT22;33280;52.152;21.052;2022-12-18T09:09:31;-3.40;99.90
47540;DHT22;33280;52.152;21.052;2022-12-18T09:11:58;-3.50;99.90
47540;DHT22;33280;52.152;21.052;2022-12-18T09:14:24;-3.40;99.90
47540;DHT22;33280;52.152;21.052;2022-12-18T09:16:51;-3.40;99.90
47540;DHT22;33280;52.152;21.052;2022-12-18T09:19:18;-3.40;99.90
47540;DHT22;33280;52.152;21.052;2022-12-18T09:21:45;-3.40;99.90
47540;DHT22;33280;52.152;21.052;2022-12-18T09:24:14;-3.30;99.90
47540;DHT22;33280;52.152;21.052;2022-12-18T09:26:41;-3.40;99.90
47540;DHT22;33280;52.152;21.052;2022-12-18T09:29:13;-3.50;99.90
47540;DHT22;33280;52.152;21.052;2022-12-18T09:31:41;-3.40;99.90
47540;DHT22;33280;52.152;21.052;2022-12-18T09:34:08;-3.30;99.90
47540;DHT22;33280;52.152;21.052;2022-12-18T09:36:36;-3.20;99.90
47540;DHT22;33280;52.152;21.052;2022-12-18T09:39:03;-3.20;99.90
47540;DHT22;33280;52.152;21.052;2022-12-18T09:41:47;-3.20;99.90
47540;DHT22;33280;52.152;21.052;2022-12-18T09:44:30;-3.20;99.90
47540;DHT22;33280;52.152;21.052;2022-12-18T09:47:13;-3.10;99.90
47540;DHT22;33280;52.152;21.052;2022-12-18T09:49:51;-3.00;99.90
47540;DHT22;33280;52.152;21.052;2022-12-18T09:52:30;-3.00;99.90
47540;DHT22;33280;52.152;21.052;2022-12-18T09:57:39;-3.00;99.90
47540;DHT22;33280;52.152;21.052;2022-12-18T10:00:16;-3.00;99.90
47540;DHT22;33280;52.152;21.052;2022-12-18T10:02:45;-3.10;99.90
47540;DHT22;33280;52.152;21.052;2022-12-18T10:05:19;-3.00;99.90
47540;DHT22;33280;52.152;21.052;2022-12-18T10:08:04;-2.90;99.90
47540;DHT22;33280;52.152;21.052;2022-12-18T10:10:52;-2.80;99.90
47540;DHT22;33280;52.152;21.052;2022-12-18T10:16:09;-2.90;99.90
47540;DHT22;33280;52.152;21.052;2022-12-18T10:21:49;-2.80;99.90
47540;DHT22;33280;52.152;21.052;2022-12-18T10:24:39;-3.00;99.90
47540;DHT22;33280;52.152;21.052;2022-12-18T10:27:21;-2.90;99.90
47540;DHT22;33280;52.152;21.052;2022-12-18T10:29:48;-2.90;99.90
47540;DHT22;33280;52.152;21.052;2022-12-18T10:32:19;-2.90;99.90
47540;DHT22;33280;52.152;21.052;2022-12-18T10:34:48;-2.80;99.90
47540;DHT22;33280;52.152;21.052;2022-12-18T10:37:22;-2.80;99.90
47540;DHT22;33280;52.152;21.052;2022-12-18T10:40:13;-3.00;99.90
47540;DHT22;33280;52.152;21.052;2022-12-18T10:43:03;-3.00;99.90
47540;DHT22;33280;52.152;21.052;2022-12-18T10:45:30;-2.90;99.90
47540;DHT22;33280;52.152;21.052;2022-12-18T10:47:58;-2.90;99.90
47540;DHT22;33280;52.152;21.052;2022-12-18T10:50:30;-2.90;99.90
47540;DHT22;33280;52.152;21.052;2022-12-18T10:53:22;-2.90;99.90
47540;DHT22;33280;52.152;21.052;2022-12-18T10:55:49;-2.80;99.90
47540;DHT22;33280;52.152;21.052;2022-12-18T10:58:30;-2.80;99.90
47540;DHT22;33280;52.152;21.052;2022-12-18T11:01:17;-2.60;99.90
47540;DHT22;33280;52.152;21.052;2022-12-18T11:04:00;-2.50;99.90
47540;DHT22;33280;52.152;21.052;2022-12-18T11:06:29;-2.40;99.90
47540;DHT22;33280;52.152;21.052;2022-12-18T11:09:06;-2.40;99.90
47540;DHT22;33280;52.152;21.052;2022-12-18T11:11:41;-2.30;99.90
47540;DHT22;33280;52.152;21.052;2022-12-18T11:14:22;-2.20;99.90
47540;DHT22;33280;52.152;21.052;2022-12-18T11:16:51;-2.30;99.90
47540;DHT22;33280;52.152;21.052;2022-12-18T11:19:39;-2.40;99.90
47540;DHT22;33280;52.152;21.052;2022-12-18T11:22:27;-2.30;99.90
47540;DHT22;33280;52.152;21.052;2022-12-18T11:27:56;-2.20;99.90
47540;DHT22;33280;52.152;21.052;2022-12-18T11:33:09;-2.40;99.90
47540;DHT22;33280;52.152;21.052;2022-12-18T11:35:53;-2.30;99.90
47540;DHT22;33280;52.152;21.052;2022-12-18T11:38:35;-2.10;99.90
47540;DHT22;33280;52.152;21.052;2022-12-18T11:43:58;-1.90;99.90
47540;DHT22;33280;52.152;21.052;2022-12-18T11:46:37;-2.00;99.90
47540;DHT22;33280;52.152;21.052;2022-12-18T11:49:17;-1.90;99.90
47540;DHT22;33280;52.152;21.052;2022-12-18T11:54:38;-1.90;99.90
47540;DHT22;33280;52.152;21.052;2022-12-18T12:27:33;-1.90;99.90
47540;DHT22;33280;52.152;21.052;2022-12-18T12:41:21;-1.80;99.90
47540;DHT22;33280;52.152;21.052;2022-12-18T12:44:35;-1.80;99.90
47540;DHT22;33280;52.152;21.052;2022-12-18T12:47:32;-1.90;99.90
47540;DHT22;33280;52.152;21.052;2022-12-18T12:50:03;-1.90;99.90
47540;DHT22;33280;52.152;21.052;2022-12-18T12:52:37;-2.00;99.90
47540;DHT22;33280;52.152;21.052;2022-12-18T12:55:14;-2.00;99.90
47540;DHT22;33280;52.152;21.052;2022-12-18T13:00:21;-2.20;99.90
47540;DHT22;33280;52.152;21.052;2022-12-18T13:08:31;-2.10;99.90
47540;DHT22;33280;52.152;21.052;2022-12-18T13:11:48;-2.30;99.90
47540;DHT22;33280;52.152;21.052;2022-12-18T13:14:36;-2.50;99.90
47540;DHT22;33280;52.152;21.052;2022-12-18T13:19:51;-2.70;99.90
47540;DHT22;33280;52.152;21.052;2022-12-18T13:22:22;-2.70;99.90
47540;DHT22;33280;52.152;21.052;2022-12-18T13:24:50;-2.70;99.90
47540;DHT22;33280;52.152;21.052;2022-12-18T13:27:51;-2.80;99.90
47540;DHT22;33280;52.152;21.052;2022-12-18T13:35:52;-2.80;99.90
47540;DHT22;33280;52.152;21.052;2022-12-18T13:38:46;-2.80;99.90
47540;DHT22;33280;52.152;21.052;2022-12-18T13:41:25;-2.70;99.90
47540;DHT22;33280;52.152;21.052;2022-12-18T13:43:57;-2.70;99.90
47540;DHT22;33280;52.152;21.052;2022-12-18T13:46:46;-2.80;99.90
47540;DHT22;33280;52.152;21.052;2022-12-18T13:51:44;-2.70;99.90
47540;DHT22;33280;52.152;21.052;2022-12-18T13:54:37;-3.00;99.90
47540;DHT22;33280;52.152;21.052;2022-12-18T13:57:31;-3.00;99.90
47540;DHT22;33280;52.152;21.052;2022-12-18T14:02:48;-2.80;99.90
47540;DHT22;33280;52.152;21.052;2022-12-18T14:05:25;-2.90;99.90
47540;DHT22;33280;52.152;21.052;2022-12-18T14:07:53;-2.90;99.90
47540;DHT22;33280;52.152;21.052;2022-12-18T14:10:22;-2.90;99.90
47540;DHT22;33280;52.152;21.052;2022-12-18T14:13:14;-2.90;99.90
47540;DHT22;33280;52.152;21.052;2022-12-18T14:15:45;-2.90;99.90
47540;DHT22;33280;52.152;21.052;2022-12-18T14:20:44;-2.90;99.90
47540;DHT22;33280;52.152;21.052;2022-12-18T14:23:38;-2.80;99.90
47540;DHT22;33280;52.152;21.052;2022-12-18T14:26:26;-3.10;99.90
47540;DHT22;33280;52.152;21.052;2022-12-18T14:28:57;-3.10;99.90
47540;DHT22;33280;52.152;21.052;2022-12-18T14:31:26;-3.00;99.90
47540;DHT22;33280;52.152;21.052;2022-12-18T14:33:54;-3.00;99.90
47540;DHT22;33280;52.152;21.052;2022-12-18T14:36:23;-2.90;99.90
47540;DHT22;33280;52.152;21.052;2022-12-18T14:38:55;-2.90;99.90
47540;DHT22;33280;52.152;21.052;2022-12-18T14:41:23;-2.90;99.90
47540;DHT22;33280;52.152;21.052;2022-12-18T14:43:52;-2.90;99.90
47540;DHT22;33280;52.152;21.052;2022-12-18T14:46:35;-2.80;99.90
47540;DHT22;33280;52.152;21.052;2022-12-18T14:49:26;-2.80;99.90
47540;DHT22;33280;52.152;21.052;2022-12-18T14:52:01;-3.00;99.90
47540;DHT22;33280;52.152;21.052;2022-12-18T14:54:30;-3.00;99.90
47540;DHT22;33280;52.152;21.052;2022-12-18T14:57:04;-3.00;99.90
47540;DHT22;33280;52.152;21.052;2022-12-18T14:59:32;-3.00;99.90
47540;DHT22;33280;52.152;21.052;2022-12-18T15:04:36;-3.10;99.90
47540;DHT22;33280;52.152;21.052;2022-12-18T15:10:33;-3.30;99.90
47540;DHT22;33280;52.152;21.052;2022-12-18T15:12:37;-3.50;99.90
47540;DHT22;33280;52.152;21.052;2022-12-18T15:15:46;-3.40;99.90
47540;DHT22;33280;52.152;21.052;2022-12-18T15:18:18;-3.30;99.90
47540;DHT22;33280;52.152;21.052;2022-12-18T15:20:53;-3.20;99.90
47540;DHT22;33280;52.152;21.052;2022-12-18T15:23:49;-3.20;99.90
47540;DHT22;33280;52.152;21.052;2022-12-18T15:26:20;-3.20;99.90
47540;DHT22;33280;52.152;21.052;2022-12-18T15:28:52;-3.30;99.90
47540;DHT22;33280;52.152;21.052;2022-12-18T15:31:34;-3.40;99.90
47540;DHT22;33280;52.152;21.052;2022-12-18T15:36:35;-3.50;99.90
47540;DHT22;33280;52.152;21.052;2022-12-18T15:39:03;-3.50;99.90
47540;DHT22;33280;52.152;21.052;2022-12-18T15:41:34;-3.50;99.90
47540;DHT22;33280;52.152;21.052;2022-12-18T15:44:02;-3.40;99.90
47540;DHT22;33280;52.152;21.052;2022-12-18T15:46:29;-3.30;99.90
47540;DHT22;33280;52.152;21.052;2022-12-18T15:48:57;-3.30;99.90
47540;DHT22;33280;52.152;21.052;2022-12-18T15:51:33;-3.40;99.90
47540;DHT22;33280;52.152;21.052;2022-12-18T15:54:03;-3.40;99.90
47540;DHT22;33280;52.152;21.052;2022-12-18T15:56:30;-3.50;99.90
47540;DHT22;33280;52.152;21.052;2022-12-18T15:59:18;-3.50;99.90
47540;DHT22;33280;52.152;21.052;2022-12-18T16:01:48;-3.60;99.90
47540;DHT22;33280;52.152;21.052;2022-12-18T16:04:17;-3.60;99.90
47540;DHT22;33280;52.152;21.052;2022-12-18T16:06:47;-3.70;99.90
47540;DHT22;33280;52.152;21.052;2022-12-18T16:09:34;-3.60;99.90
47540;DHT22;33280;52.152;21.052;2022-12-18T16:12:01;-3.60;99.90
47540;DHT22;33280;52.152;21.052;2022-12-18T16:14:29;-3.60;99.90
47540;DHT22;33280;52.152;21.052;2022-12-18T16:16:58;-3.50;99.90
47540;DHT22;33280;52.152;21.052;2022-12-18T16:19:28;-3.50;99.90
47540;DHT22;33280;52.152;21.052;2022-12-18T16:21:57;-3.70;99.90
47540;DHT22;33280;52.152;21.052;2022-12-18T16:24:26;-3.70;99.90
47540;DHT22;33280;52.152;21.052;2022-12-18T16:26:53;-3.70;99.90
47540;DHT22;33280;52.152;21.052;2022-12-18T16:29:22;-3.60;99.90
47540;DHT22;33280;52.152;21.052;2022-12-18T16:31:54;-3.60;99.90
47540;DHT22;33280;52.152;21.052;2022-12-18T16:34:27;-3.60;99.90
47540;DHT22;33280;52.152;21.052;2022-12-18T16:37:00;-3.70;99.90
47540;DHT22;33280;52.152;21.052;2022-12-18T16:39:32;-3.70;99.90
47540;DHT22;33280;52.152;21.052;2022-12-18T16:42:12;-3.70;99.90
47540;DHT22;33280;52.152;21.052;2022-12-18T16:44:41;-3.70;99.90
47540;DHT22;33280;52.152;21.052;2022-12-18T16:47:08;-3.70;99.90
47540;DHT22;33280;52.152;21.052;2022-12-18T16:49:38;-3.80;99.90
47540;DHT22;33280;52.152;21.052;2022-12-18T16:52:06;-3.80;99.90
47540;DHT22;33280;52.152;21.052;2022-12-18T16:54:33;-3.80;99.90
47540;DHT22;33280;52.152;21.052;2022-12-18T16:57:03;-3.90;99.90
47540;DHT22;33280;52.152;21.052;2022-12-18T16:59:31;-3.90;99.90
47540;DHT22;33280;52.152;21.052;2022-12-18T17:02:01;-3.80;99.90
47540;DHT22;33280;52.152;21.052;2022-12-18T17:04:31;-3.70;99.90
47540;DHT22;33280;52.152;21.052;2022-12-18T17:06:59;-3.60;99.90
47540;DHT22;33280;52.152;21.052;2022-12-18T17:09:26;-3.60;99.90
47540;DHT22;33280;52.152;21.052;2022-12-18T17:11:53;-3.60;99.90
47540;DHT22;33280;52.152;21.052;2022-12-18T17:14:23;-3.70;99.90
47540;DHT22;33280;52.152;21.052;2022-12-18T17:16:51;-3.70;99.90
47540;DHT22;33280;52.152;21.052;2022-12-18T17:19:38;-3.70;99.90
47540;DHT22;33280;52.152;21.052;2022-12-18T17:22:05;-3.90;99.90
47540;DHT22;33280;52.152;21.052;2022-12-18T17:24:34;-3.90;99.90
47540;DHT22;33280;52.152;21.052;2022-12-18T17:27:02;-4.00;99.90
47540;DHT22;33280;52.152;21.052;2022-12-18T17:29:29;-4.00;99.90
47540;DHT22;33280;52.152;21.052;2022-12-18T17:31:56;-4.00;99.90
47540;DHT22;33280;52.152;21.052;2022-12-18T17:34:26;-4.00;99.90
47540;DHT22;33280;52.152;21.052;2022-12-18T17:36:53;-4.00;99.90
47540;DHT22;33280;52.152;21.052;2022-12-18T17:39:20;-3.90;99.90
47540;DHT22;33280;52.152;21.052;2022-12-18T17:41:47;-4.00;99.90
47540;DHT22;33280;52.152;21.052;2022-12-18T17:44:14;-4.00;99.90
47540;DHT22;33280;52.152;21.052;2022-12-18T17:46:43;-4.10;99.90
47540;DHT22;33280;52.152;21.052;2022-12-18T17:49:12;-4.10;99.90